sensor_id;sensor_type;location;lat;lon;timestamp;P1;durP1;ratioP1;P2;durP2;ratioP2
74371;SDS011;62885;51.374;6.170;2024-03-08T00:00:58;14.63;;;8.27;;
74371;SDS011;62885;51.374;6.170;2024-03-08T00:03:23;13.77;;;8.30;;
74371;SDS011;62885;51.374;6.170;2024-03-08T00:05:49;14.38;;;7.95;;
74371;SDS011;62885;51.374;6.170;2024-03-08T00:08:14;15.15;;;8.05;;
74371;SDS011;62885;51.374;6.170;2024-03-08T00:10:40;20.25;;;9.07;;
74371;SDS011;62885;51.374;6.170;2024-03-08T00:13:06;14.63;;;8.45;;
74371;SDS011;62885;51.374;6.170;2024-03-08T00:15:33;15.20;;;7.78;;
74371;SDS011;62885;51.374;6.170;2024-03-08T00:17:59;12.40;;;7.90;;
74371;SDS011;62885;51.374;6.170;2024-03-08T00:20:25;14.38;;;7.95;;
74371;SDS011;62885;51.374;6.170;2024-03-08T00:22:50;18.08;;;9.88;;
74371;SDS011;62885;51.374;6.170;2024-03-08T00:25:16;18.95;;;8.90;;
74371;SDS011;62885;51.374;6.170;2024-03-08T00:27:41;14.60;;;7.82;;
74371;SDS011;62885;51.374;6.170;2024-03-08T00:30:07;18.10;;;9.05;;
74371;SDS011;62885;51.374;6.170;2024-03-08T00:32:33;16.15;;;8.88;;
74371;SDS011;62885;51.374;6.170;2024-03-08T00:34:58;17.05;;;8.48;;
74371;SDS011;62885;51.374;6.170;2024-03-08T00:37:24;17.35;;;8.10;;
74371;SDS011;62885;51.374;6.170;2024-03-08T00:39:52;13.73;;;7.72;;
74371;SDS011;62885;51.374;6.170;2024-03-08T00:42:18;13.85;;;8.52;;
74371;SDS011;62885;51.374;6.170;2024-03-08T00:44:44;13.32;;;8.90;;
74371;SDS011;62885;51.374;6.170;2024-03-08T00:47:10;16.33;;;8.80;;
74371;SDS011;62885;51.374;6.170;2024-03-08T00:49:35;16.15;;;8.57;;
74371;SDS011;62885;51.374;6.170;2024-03-08T00:52:04;14.40;;;8.50;;
74371;SDS011;62885;51.374;6.170;2024-03-08T00:54:31;18.45;;;8.73;;
74371;SDS011;62885;51.374;6.170;2024-03-08T00:56:57;19.13;;;9.40;;
74371;SDS011;62885;51.374;6.170;2024-03-08T00:59:22;16.15;;;8.57;;
74371;SDS011;62885;51.374;6.170;2024-03-08T01:01:48;16.30;;;9.90;;
74371;SDS011;62885;51.374;6.170;2024-03-08T01:04:13;12.85;;;8.20;;
74371;SDS011;62885;51.374;6.170;2024-03-08T01:06:38;19.40;;;8.13;;
74371;SDS011;62885;51.374;6.170;2024-03-08T01:09:04;14.48;;;8.07;;
74371;SDS011;62885;51.374;6.170;2024-03-08T01:11:32;15.15;;;7.35;;
74371;SDS011;62885;51.374;6.170;2024-03-08T01:13:58;15.13;;;8.80;;
74371;SDS011;62885;51.374;6.170;2024-03-08T01:16:23;17.38;;;8.68;;
74371;SDS011;62885;51.374;6.170;2024-03-08T01:18:48;17.15;;;8.93;;
74371;SDS011;62885;51.374;6.170;2024-03-08T01:21:14;15.30;;;8.75;;
74371;SDS011;62885;51.374;6.170;2024-03-08T01:23:39;14.65;;;7.80;;
74371;SDS011;62885;51.374;6.170;2024-03-08T01:26:04;12.82;;;8.23;;
74371;SDS011;62885;51.374;6.170;2024-03-08T01:28:30;17.42;;;9.15;;
74371;SDS011;62885;51.374;6.170;2024-03-08T01:30:55;16.13;;;8.02;;
74371;SDS011;62885;51.374;6.170;2024-03-08T01:33:21;18.45;;;8.80;;
74371;SDS011;62885;51.374;6.170;2024-03-08T01:35:48;14.60;;;8.35;;
74371;SDS011;62885;51.374;6.170;2024-03-08T01:38:13;16.05;;;7.93;;
74371;SDS011;62885;51.374;6.170;2024-03-08T01:40:38;15.43;;;7.70;;
74371;SDS011;62885;51.374;6.170;2024-03-08T01:43:19;18.85;;;8.68;;
74371;SDS011;62885;51.374;6.170;2024-03-08T01:45:45;17.17;;;8.30;;
74371;SDS011;62885;51.374;6.170;2024-03-08T01:48:10;14.90;;;8.45;;
74371;SDS011;62885;51.374;6.170;2024-03-08T01:50:37;13.43;;;7.53;;
74371;SDS011;62885;51.374;6.170;2024-03-08T01:53:04;16.00;;;8.10;;
74371;SDS011;62885;51.374;6.170;2024-03-08T01:55:30;19.30;;;8.45;;
74371;SDS011;62885;51.374;6.170;2024-03-08T01:57:55;13.50;;;8.13;;
74371;SDS011;62885;51.374;6.170;2024-03-08T02:00:21;12.75;;;7.32;;
74371;SDS011;62885;51.374;6.170;2024-03-08T02:02:48;15.93;;;9.32;;
74371;SDS011;62885;51.374;6.170;2024-03-08T02:05:16;14.23;;;8.38;;
74371;SDS011;62885;51.374;6.170;2024-03-08T02:07:43;14.95;;;8.48;;
74371;SDS011;62885;51.374;6.170;2024-03-08T02:10:11;17.70;;;8.93;;
74371;SDS011;62885;51.374;6.170;2024-03-08T02:12:37;19.85;;;8.77;;
74371;SDS011;62885;51.374;6.170;2024-03-08T02:15:03;16.42;;;9.35;;
74371;SDS011;62885;51.374;6.170;2024-03-08T02:17:31;18.10;;;8.82;;
74371;SDS011;62885;51.374;6.170;2024-03-08T02:19:58;15.80;;;9.15;;
74371;SDS011;62885;51.374;6.170;2024-03-08T02:22:26;17.38;;;8.48;;
74371;SDS011;62885;51.374;6.170;2024-03-08T02:24:52;18.75;;;9.00;;
74371;SDS011;62885;51.374;6.170;2024-03-08T02:27:22;14.52;;;8.25;;
74371;SDS011;62885;51.374;6.170;2024-03-08T02:29:49;18.75;;;10.50;;
74371;SDS011;62885;51.374;6.170;2024-03-08T02:32:15;17.58;;;10.02;;
74371;SDS011;62885;51.374;6.170;2024-03-08T02:34:40;16.38;;;8.45;;
74371;SDS011;62885;51.374;6.170;2024-03-08T02:37:06;15.40;;;9.38;;
74371;SDS011;62885;51.374;6.170;2024-03-08T02:39:31;17.85;;;7.65;;
74371;SDS011;62885;51.374;6.170;2024-03-08T02:41:57;14.40;;;8.30;;
74371;SDS011;62885;51.374;6.170;2024-03-08T02:44:22;22.85;;;9.65;;
74371;SDS011;62885;51.374;6.170;2024-03-08T02:46:48;16.40;;;8.80;;
74371;SDS011;62885;51.374;6.170;2024-03-08T02:49:15;15.65;;;8.55;;
74371;SDS011;62885;51.374;6.170;2024-03-08T02:51:41;14.98;;;7.80;;
74371;SDS011;62885;51.374;6.170;2024-03-08T02:54:06;17.73;;;9.00;;
74371;SDS011;62885;51.374;6.170;2024-03-08T02:56:33;16.42;;;8.55;;
74371;SDS011;62885;51.374;6.170;2024-03-08T02:58:59;17.05;;;8.80;;
74371;SDS011;62885;51.374;6.170;2024-03-08T03:01:25;16.40;;;8.10;;
74371;SDS011;62885;51.374;6.170;2024-03-08T03:03:51;16.50;;;8.45;;
74371;SDS011;62885;51.374;6.170;2024-03-08T03:06:16;15.07;;;8.65;;
74371;SDS011;62885;51.374;6.170;2024-03-08T03:08:46;16.70;;;8.93;;
74371;SDS011;62885;51.374;6.170;2024-03-08T03:11:11;13.18;;;7.82;;
74371;SDS011;62885;51.374;6.170;2024-03-08T03:13:38;15.63;;;8.88;;
74371;SDS011;62885;51.374;6.170;2024-03-08T03:16:07;11.23;;;6.60;;
74371;SDS011;62885;51.374;6.170;2024-03-08T03:18:32;17.75;;;8.68;;
74371;SDS011;62885;51.374;6.170;2024-03-08T03:20:58;17.23;;;8.88;;
74371;SDS011;62885;51.374;6.170;2024-03-08T03:23:23;16.35;;;8.73;;
74371;SDS011;62885;51.374;6.170;2024-03-08T03:25:51;19.92;;;9.07;;
74371;SDS011;62885;51.374;6.170;2024-03-08T03:28:17;20.58;;;10.48;;
74371;SDS011;62885;51.374;6.170;2024-03-08T03:30:44;19.83;;;10.32;;
74371;SDS011;62885;51.374;6.170;2024-03-08T03:33:11;22.85;;;9.52;;
74371;SDS011;62885;51.374;6.170;2024-03-08T03:35:37;17.05;;;9.48;;
74371;SDS011;62885;51.374;6.170;2024-03-08T03:38:03;17.98;;;9.27;;
74371;SDS011;62885;51.374;6.170;2024-03-08T03:40:34;17.60;;;9.40;;
74371;SDS011;62885;51.374;6.170;2024-03-08T03:43:01;18.00;;;8.93;;
74371;SDS011;62885;51.374;6.170;2024-03-08T03:45:28;19.55;;;9.90;;
74371;SDS011;62885;51.374;6.170;2024-03-08T03:47:53;16.02;;;9.30;;
74371;SDS011;62885;51.374;6.170;2024-03-08T03:50:19;17.80;;;9.60;;
74371;SDS011;62885;51.374;6.170;2024-03-08T03:52:45;16.02;;;8.68;;
74371;SDS011;62885;51.374;6.170;2024-03-08T03:55:11;18.05;;;8.65;;
74371;SDS011;62885;51.374;6.170;2024-03-08T03:57:38;18.33;;;9.40;;
74371;SDS011;62885;51.374;6.170;2024-03-08T04:00:03;21.17;;;9.75;;
74371;SDS011;62885;51.374;6.170;2024-03-08T04:02:30;18.98;;;9.88;;
74371;SDS011;62885;51.374;6.170;2024-03-08T04:04:55;17.67;;;9.82;;
74371;SDS011;62885;51.374;6.170;2024-03-08T04:07:20;16.10;;;9.02;;
74371;SDS011;62885;51.374;6.170;2024-03-08T04:09:46;15.80;;;8.63;;
74371;SDS011;62885;51.374;6.170;2024-03-08T04:12:11;16.52;;;10.50;;
74371;SDS011;62885;51.374;6.170;2024-03-08T04:14:41;19.85;;;10.13;;
74371;SDS011;62885;51.374;6.170;2024-03-08T04:17:07;20.92;;;10.23;;
74371;SDS011;62885;51.374;6.170;2024-03-08T04:19:34;19.33;;;9.93;;
74371;SDS011;62885;51.374;6.170;2024-03-08T04:21:59;15.95;;;7.70;;
74371;SDS011;62885;51.374;6.170;2024-03-08T04:24:26;16.92;;;9.52;;
74371;SDS011;62885;51.374;6.170;2024-03-08T04:26:51;17.58;;;9.10;;
74371;SDS011;62885;51.374;6.170;2024-03-08T04:29:16;20.48;;;11.20;;
74371;SDS011;62885;51.374;6.170;2024-03-08T04:31:42;18.02;;;9.93;;
74371;SDS011;62885;51.374;6.170;2024-03-08T04:34:07;22.70;;;10.98;;
74371;SDS011;62885;51.374;6.170;2024-03-08T04:36:33;17.92;;;9.60;;
74371;SDS011;62885;51.374;6.170;2024-03-08T04:38:59;14.75;;;8.88;;
74371;SDS011;62885;51.374;6.170;2024-03-08T04:41:25;15.75;;;9.15;;
74371;SDS011;62885;51.374;6.170;2024-03-08T04:43:50;18.05;;;10.65;;
74371;SDS011;62885;51.374;6.170;2024-03-08T04:46:16;15.20;;;7.88;;
74371;SDS011;62885;51.374;6.170;2024-03-08T04:48:42;16.40;;;9.98;;
74371;SDS011;62885;51.374;6.170;2024-03-08T04:51:08;19.85;;;9.00;;
74371;SDS011;62885;51.374;6.170;2024-03-08T04:53:34;19.65;;;9.05;;
74371;SDS011;62885;51.374;6.170;2024-03-08T04:56:00;17.40;;;10.25;;
74371;SDS011;62885;51.374;6.170;2024-03-08T04:58:25;17.10;;;9.35;;
74371;SDS011;62885;51.374;6.170;2024-03-08T05:00:50;17.52;;;10.02;;
74371;SDS011;62885;51.374;6.170;2024-03-08T05:03:16;18.30;;;9.55;;
74371;SDS011;62885;51.374;6.170;2024-03-08T05:05:41;19.88;;;10.45;;
74371;SDS011;62885;51.374;6.170;2024-03-08T05:08:06;22.02;;;10.10;;
74371;SDS011;62885;51.374;6.170;2024-03-08T05:10:32;22.75;;;11.13;;
74371;SDS011;62885;51.374;6.170;2024-03-08T05:12:57;15.45;;;8.60;;
74371;SDS011;62885;51.374;6.170;2024-03-08T05:15:23;18.65;;;10.15;;
74371;SDS011;62885;51.374;6.170;2024-03-08T05:17:48;20.70;;;11.40;;
74371;SDS011;62885;51.374;6.170;2024-03-08T05:20:14;18.05;;;10.10;;
74371;SDS011;62885;51.374;6.170;2024-03-08T05:22:42;21.35;;;10.95;;
74371;SDS011;62885;51.374;6.170;2024-03-08T05:25:07;16.00;;;9.60;;
74371;SDS011;62885;51.374;6.170;2024-03-08T05:27:34;21.25;;;10.15;;
74371;SDS011;62885;51.374;6.170;2024-03-08T05:29:59;20.75;;;9.73;;
74371;SDS011;62885;51.374;6.170;2024-03-08T05:32:25;20.80;;;11.43;;
74371;SDS011;62885;51.374;6.170;2024-03-08T05:34:51;19.55;;;9.88;;
74371;SDS011;62885;51.374;6.170;2024-03-08T05:37:17;21.88;;;10.48;;
74371;SDS011;62885;51.374;6.170;2024-03-08T05:39:42;19.55;;;9.65;;
74371;SDS011;62885;51.374;6.170;2024-03-08T05:42:09;21.25;;;10.98;;
74371;SDS011;62885;51.374;6.170;2024-03-08T05:44:35;18.30;;;10.68;;
74371;SDS011;62885;51.374;6.170;2024-03-08T05:47:00;18.58;;;10.80;;
74371;SDS011;62885;51.374;6.170;2024-03-08T05:49:25;20.77;;;12.02;;
74371;SDS011;62885;51.374;6.170;2024-03-08T05:51:51;22.08;;;11.18;;
74371;SDS011;62885;51.374;6.170;2024-03-08T05:54:16;17.63;;;10.90;;
74371;SDS011;62885;51.374;6.170;2024-03-08T05:56:42;19.30;;;10.70;;
74371;SDS011;62885;51.374;6.170;2024-03-08T05:59:08;21.65;;;12.35;;
74371;SDS011;62885;51.374;6.170;2024-03-08T06:01:34;17.27;;;10.75;;
74371;SDS011;62885;51.374;6.170;2024-03-08T06:04:01;20.52;;;10.77;;
74371;SDS011;62885;51.374;6.170;2024-03-08T06:06:27;17.88;;;10.82;;
74371;SDS011;62885;51.374;6.170;2024-03-08T06:08:53;20.33;;;10.50;;
74371;SDS011;62885;51.374;6.170;2024-03-08T06:11:19;18.13;;;9.63;;
74371;SDS011;62885;51.374;6.170;2024-03-08T06:13:46;21.45;;;12.07;;
74371;SDS011;62885;51.374;6.170;2024-03-08T06:16:11;15.43;;;9.60;;
74371;SDS011;62885;51.374;6.170;2024-03-08T06:18:37;21.20;;;10.88;;
74371;SDS011;62885;51.374;6.170;2024-03-08T06:21:04;19.33;;;10.65;;
74371;SDS011;62885;51.374;6.170;2024-03-08T06:23:31;20.08;;;9.95;;
74371;SDS011;62885;51.374;6.170;2024-03-08T06:26:03;19.15;;;11.45;;
74371;SDS011;62885;51.374;6.170;2024-03-08T06:28:31;21.45;;;12.30;;
74371;SDS011;62885;51.374;6.170;2024-03-08T06:30:58;26.42;;;12.10;;
74371;SDS011;62885;51.374;6.170;2024-03-08T06:33:23;21.23;;;11.85;;
74371;SDS011;62885;51.374;6.170;2024-03-08T06:35:51;18.00;;;9.13;;
74371;SDS011;62885;51.374;6.170;2024-03-08T06:38:17;21.45;;;12.13;;
74371;SDS011;62885;51.374;6.170;2024-03-08T06:40:43;19.67;;;11.07;;
74371;SDS011;62885;51.374;6.170;2024-03-08T06:43:08;18.25;;;10.68;;
74371;SDS011;62885;51.374;6.170;2024-03-08T06:45:36;20.90;;;9.98;;
74371;SDS011;62885;51.374;6.170;2024-03-08T06:48:03;19.10;;;9.45;;
74371;SDS011;62885;51.374;6.170;2024-03-08T06:50:28;17.65;;;9.93;;
74371;SDS011;62885;51.374;6.170;2024-03-08T06:52:53;28.00;;;11.98;;
74371;SDS011;62885;51.374;6.170;2024-03-08T06:55:19;18.20;;;10.93;;
74371;SDS011;62885;51.374;6.170;2024-03-08T06:57:45;18.70;;;10.20;;
74371;SDS011;62885;51.374;6.170;2024-03-08T07:00:10;19.50;;;10.55;;
74371;SDS011;62885;51.374;6.170;2024-03-08T07:02:40;20.52;;;11.15;;
74371;SDS011;62885;51.374;6.170;2024-03-08T07:05:07;17.27;;;8.25;;
74371;SDS011;62885;51.374;6.170;2024-03-08T07:07:35;19.13;;;10.80;;
74371;SDS011;62885;51.374;6.170;2024-03-08T07:10:01;16.92;;;9.77;;
74371;SDS011;62885;51.374;6.170;2024-03-08T07:12:26;21.10;;;11.60;;
74371;SDS011;62885;51.374;6.170;2024-03-08T07:14:51;21.73;;;11.35;;
74371;SDS011;62885;51.374;6.170;2024-03-08T07:17:17;22.75;;;11.60;;
74371;SDS011;62885;51.374;6.170;2024-03-08T07:19:42;18.73;;;10.90;;
74371;SDS011;62885;51.374;6.170;2024-03-08T07:22:07;20.05;;;11.23;;
74371;SDS011;62885;51.374;6.170;2024-03-08T07:24:34;23.02;;;12.20;;
74371;SDS011;62885;51.374;6.170;2024-03-08T07:27:19;20.85;;;11.82;;
74371;SDS011;62885;51.374;6.170;2024-03-08T07:29:44;22.65;;;10.85;;
74371;SDS011;62885;51.374;6.170;2024-03-08T07:32:10;18.02;;;9.65;;
74371;SDS011;62885;51.374;6.170;2024-03-08T07:34:46;19.83;;;10.73;;
74371;SDS011;62885;51.374;6.170;2024-03-08T07:37:13;22.08;;;11.10;;
74371;SDS011;62885;51.374;6.170;2024-03-08T07:39:39;19.50;;;11.02;;
74371;SDS011;62885;51.374;6.170;2024-03-08T07:42:04;14.77;;;9.52;;
74371;SDS011;62885;51.374;6.170;2024-03-08T07:44:30;18.35;;;9.82;;
74371;SDS011;62885;51.374;6.170;2024-03-08T07:46:59;20.20;;;10.35;;
74371;SDS011;62885;51.374;6.170;2024-03-08T07:49:24;21.35;;;11.18;;
74371;SDS011;62885;51.374;6.170;2024-03-08T07:51:50;22.08;;;11.40;;
74371;SDS011;62885;51.374;6.170;2024-03-08T07:54:15;18.73;;;10.77;;
74371;SDS011;62885;51.374;6.170;2024-03-08T07:56:40;19.95;;;10.75;;
74371;SDS011;62885;51.374;6.170;2024-03-08T07:59:07;14.00;;;7.70;;
74371;SDS011;62885;51.374;6.170;2024-03-08T08:01:32;19.95;;;12.15;;
74371;SDS011;62885;51.374;6.170;2024-03-08T08:04:01;19.75;;;10.38;;
74371;SDS011;62885;51.374;6.170;2024-03-08T08:06:27;22.27;;;9.82;;
74371;SDS011;62885;51.374;6.170;2024-03-08T08:08:53;17.10;;;9.73;;
74371;SDS011;62885;51.374;6.170;2024-03-08T08:11:18;22.33;;;10.73;;
74371;SDS011;62885;51.374;6.170;2024-03-08T08:13:45;23.73;;;11.68;;
74371;SDS011;62885;51.374;6.170;2024-03-08T08:16:10;17.35;;;9.95;;
74371;SDS011;62885;51.374;6.170;2024-03-08T08:18:36;22.25;;;10.35;;
74371;SDS011;62885;51.374;6.170;2024-03-08T08:21:02;20.08;;;10.07;;
74371;SDS011;62885;51.374;6.170;2024-03-08T08:23:28;16.17;;;9.40;;
74371;SDS011;62885;51.374;6.170;2024-03-08T08:25:54;12.50;;;7.07;;
74371;SDS011;62885;51.374;6.170;2024-03-08T08:28:22;20.52;;;10.82;;
74371;SDS011;62885;51.374;6.170;2024-03-08T08:30:47;18.15;;;10.68;;
74371;SDS011;62885;51.374;6.170;2024-03-08T08:33:14;18.05;;;9.90;;
74371;SDS011;62885;51.374;6.170;2024-03-08T08:35:40;19.25;;;9.93;;
74371;SDS011;62885;51.374;6.170;2024-03-08T08:38:05;21.08;;;9.25;;
74371;SDS011;62885;51.374;6.170;2024-03-08T08:40:32;18.75;;;10.25;;
74371;SDS011;62885;51.374;6.170;2024-03-08T08:42:58;21.13;;;9.20;;
74371;SDS011;62885;51.374;6.170;2024-03-08T08:45:24;21.35;;;11.25;;
74371;SDS011;62885;51.374;6.170;2024-03-08T08:47:50;24.98;;;10.98;;
74371;SDS011;62885;51.374;6.170;2024-03-08T08:50:16;20.45;;;10.50;;
74371;SDS011;62885;51.374;6.170;2024-03-08T08:52:47;19.85;;;11.30;;
74371;SDS011;62885;51.374;6.170;2024-03-08T08:55:14;22.60;;;10.88;;
74371;SDS011;62885;51.374;6.170;2024-03-08T08:57:40;19.98;;;10.85;;
74371;SDS011;62885;51.374;6.170;2024-03-08T09:00:06;19.67;;;8.68;;
74371;SDS011;62885;51.374;6.170;2024-03-08T09:02:32;17.63;;;9.35;;
74371;SDS011;62885;51.374;6.170;2024-03-08T09:04:58;13.68;;;6.10;;
74371;SDS011;62885;51.374;6.170;2024-03-08T09:07:23;13.75;;;7.80;;
74371;SDS011;62885;51.374;6.170;2024-03-08T09:09:49;18.23;;;8.90;;
74371;SDS011;62885;51.374;6.170;2024-03-08T09:12:14;15.18;;;7.68;;
74371;SDS011;62885;51.374;6.170;2024-03-08T09:14:40;12.25;;;6.55;;
74371;SDS011;62885;51.374;6.170;2024-03-08T09:17:06;14.43;;;8.75;;
74371;SDS011;62885;51.374;6.170;2024-03-08T09:19:33;16.15;;;8.73;;
74371;SDS011;62885;51.374;6.170;2024-03-08T09:21:59;14.52;;;7.38;;
74371;SDS011;62885;51.374;6.170;2024-03-08T09:24:24;17.98;;;10.35;;
74371;SDS011;62885;51.374;6.170;2024-03-08T09:26:49;16.83;;;8.02;;
74371;SDS011;62885;51.374;6.170;2024-03-08T09:29:15;15.20;;;7.15;;
74371;SDS011;62885;51.374;6.170;2024-03-08T09:31:41;17.80;;;8.63;;
74371;SDS011;62885;51.374;6.170;2024-03-08T09:34:06;12.52;;;7.13;;
74371;SDS011;62885;51.374;6.170;2024-03-08T09:36:33;12.00;;;7.00;;
74371;SDS011;62885;51.374;6.170;2024-03-08T09:38:59;18.38;;;9.65;;
74371;SDS011;62885;51.374;6.170;2024-03-08T09:41:25;19.80;;;9.18;;
74371;SDS011;62885;51.374;6.170;2024-03-08T09:43:51;18.90;;;9.48;;
74371;SDS011;62885;51.374;6.170;2024-03-08T09:46:16;16.73;;;8.63;;
74371;SDS011;62885;51.374;6.170;2024-03-08T09:48:44;28.23;;;10.70;;
74371;SDS011;62885;51.374;6.170;2024-03-08T09:51:11;16.20;;;8.00;;
74371;SDS011;62885;51.374;6.170;2024-03-08T09:53:40;14.00;;;8.70;;
74371;SDS011;62885;51.374;6.170;2024-03-08T09:56:07;16.02;;;7.10;;
74371;SDS011;62885;51.374;6.170;2024-03-08T09:58:33;17.20;;;8.27;;
74371;SDS011;62885;51.374;6.170;2024-03-08T10:00:58;15.18;;;8.23;;
74371;SDS011;62885;51.374;6.170;2024-03-08T10:03:27;10.57;;;6.43;;
74371;SDS011;62885;51.374;6.170;2024-03-08T10:05:53;13.20;;;7.80;;
74371;SDS011;62885;51.374;6.170;2024-03-08T10:08:21;13.77;;;7.93;;
74371;SDS011;62885;51.374;6.170;2024-03-08T10:10:46;15.65;;;7.55;;
74371;SDS011;62885;51.374;6.170;2024-03-08T10:13:12;8.32;;;4.85;;
74371;SDS011;62885;51.374;6.170;2024-03-08T10:15:39;13.65;;;6.75;;
74371;SDS011;62885;51.374;6.170;2024-03-08T10:18:05;9.13;;;5.38;;
74371;SDS011;62885;51.374;6.170;2024-03-08T10:20:31;13.82;;;7.78;;
74371;SDS011;62885;51.374;6.170;2024-03-08T10:23:00;11.68;;;6.78;;
74371;SDS011;62885;51.374;6.170;2024-03-08T10:25:28;11.43;;;6.03;;
74371;SDS011;62885;51.374;6.170;2024-03-08T10:27:55;11.50;;;6.60;;
74371;SDS011;62885;51.374;6.170;2024-03-08T10:30:21;14.38;;;7.03;;
74371;SDS011;62885;51.374;6.170;2024-03-08T10:32:47;11.32;;;5.65;;
74371;SDS011;62885;51.374;6.170;2024-03-08T10:35:13;11.98;;;6.28;;
74371;SDS011;62885;51.374;6.170;2024-03-08T10:37:46;12.38;;;6.30;;
74371;SDS011;62885;51.374;6.170;2024-03-08T10:40:17;10.75;;;5.78;;
74371;SDS011;62885;51.374;6.170;2024-03-08T10:42:51;10.50;;;5.85;;
74371;SDS011;62885;51.374;6.170;2024-03-08T10:45:35;15.00;;;7.78;;
74371;SDS011;62885;51.374;6.170;2024-03-08T10:48:16;12.50;;;6.18;;
74371;SDS011;62885;51.374;6.170;2024-03-08T10:50:48;9.45;;;4.65;;
74371;SDS011;62885;51.374;6.170;2024-03-08T10:53:15;9.57;;;5.15;;
74371;SDS011;62885;51.374;6.170;2024-03-08T10:55:43;10.93;;;5.93;;
74371;SDS011;62885;51.374;6.170;2024-03-08T10:58:09;13.05;;;6.95;;
74371;SDS011;62885;51.374;6.170;2024-03-08T11:00:35;9.93;;;6.50;;
74371;SDS011;62885;51.374;6.170;2024-03-08T11:03:02;13.05;;;6.35;;
74371;SDS011;62885;51.374;6.170;2024-03-08T11:05:32;12.75;;;6.72;;
74371;SDS011;62885;51.374;6.170;2024-03-08T11:08:02;10.30;;;5.93;;
74371;SDS011;62885;51.374;6.170;2024-03-08T11:10:29;13.43;;;6.85;;
74371;SDS011;62885;51.374;6.170;2024-03-08T11:12:57;8.80;;;5.05;;
74371;SDS011;62885;51.374;6.170;2024-03-08T11:15:23;10.13;;;5.80;;
74371;SDS011;62885;51.374;6.170;2024-03-08T11:17:49;8.60;;;5.35;;
74371;SDS011;62885;51.374;6.170;2024-03-08T11:22:52;11.32;;;5.05;;
74371;SDS011;62885;51.374;6.170;2024-03-08T11:25:38;11.88;;;6.18;;
74371;SDS011;62885;51.374;6.170;2024-03-08T11:31:26;12.35;;;6.85;;
74371;SDS011;62885;51.374;6.170;2024-03-08T11:33:27;9.43;;;3.88;;
74371;SDS011;62885;51.374;6.170;2024-03-08T11:38:47;12.82;;;6.95;;
74371;SDS011;62885;51.374;6.170;2024-03-08T11:41:18;13.50;;;6.78;;
74371;SDS011;62885;51.374;6.170;2024-03-08T11:43:45;10.43;;;6.20;;
74371;SDS011;62885;51.374;6.170;2024-03-08T11:46:11;12.98;;;6.20;;
74371;SDS011;62885;51.374;6.170;2024-03-08T11:48:41;15.13;;;4.68;;
74371;SDS011;62885;51.374;6.170;2024-03-08T11:51:07;10.35;;;5.70;;
74371;SDS011;62885;51.374;6.170;2024-03-08T11:53:33;11.35;;;5.63;;
74371;SDS011;62885;51.374;6.170;2024-03-08T11:56:11;10.05;;;5.00;;
74371;SDS011;62885;51.374;6.170;2024-03-08T11:58:38;7.65;;;5.13;;
74371;SDS011;62885;51.374;6.170;2024-03-08T12:01:08;15.13;;;6.07;;
74371;SDS011;62885;51.374;6.170;2024-03-08T12:03:38;9.90;;;3.78;;
74371;SDS011;62885;51.374;6.170;2024-03-08T12:06:04;11.30;;;5.32;;
74371;SDS011;62885;51.374;6.170;2024-03-08T12:08:30;10.60;;;5.10;;
74371;SDS011;62885;51.374;6.170;2024-03-08T12:10:57;7.88;;;4.22;;
74371;SDS011;62885;51.374;6.170;2024-03-08T12:13:26;9.40;;;4.85;;
74371;SDS011;62885;51.374;6.170;2024-03-08T12:15:55;7.38;;;3.88;;
74371;SDS011;62885;51.374;6.170;2024-03-08T12:18:23;6.90;;;3.97;;
74371;SDS011;62885;51.374;6.170;2024-03-08T12:20:49;9.52;;;4.38;;
74371;SDS011;62885;51.374;6.170;2024-03-08T12:23:15;10.70;;;3.83;;
74371;SDS011;62885;51.374;6.170;2024-03-08T12:25:41;7.47;;;4.85;;
74371;SDS011;62885;51.374;6.170;2024-03-08T12:28:10;10.35;;;4.50;;
74371;SDS011;62885;51.374;6.170;2024-03-08T12:30:58;9.30;;;5.10;;
74371;SDS011;62885;51.374;6.170;2024-03-08T12:33:25;10.20;;;4.55;;
74371;SDS011;62885;51.374;6.170;2024-03-08T12:35:52;11.60;;;5.57;;
74371;SDS011;62885;51.374;6.170;2024-03-08T12:38:20;11.20;;;5.47;;
74371;SDS011;62885;51.374;6.170;2024-03-08T12:40:50;9.68;;;5.78;;
74371;SDS011;62885;51.374;6.170;2024-03-08T12:43:15;10.60;;;6.10;;
74371;SDS011;62885;51.374;6.170;2024-03-08T12:45:41;13.50;;;5.15;;
74371;SDS011;62885;51.374;6.170;2024-03-08T12:48:12;10.98;;;5.28;;
74371;SDS011;62885;51.374;6.170;2024-03-08T12:50:41;10.27;;;5.90;;
74371;SDS011;62885;51.374;6.170;2024-03-08T12:53:12;11.65;;;6.28;;
74371;SDS011;62885;51.374;6.170;2024-03-08T12:55:38;10.45;;;5.32;;
74371;SDS011;62885;51.374;6.170;2024-03-08T12:58:03;10.98;;;5.75;;
74371;SDS011;62885;51.374;6.170;2024-03-08T13:00:32;11.10;;;5.90;;
74371;SDS011;62885;51.374;6.170;2024-03-08T13:03:00;12.00;;;5.70;;
74371;SDS011;62885;51.374;6.170;2024-03-08T13:05:25;10.50;;;5.57;;
74371;SDS011;62885;51.374;6.170;2024-03-08T13:07:52;11.48;;;5.35;;
74371;SDS011;62885;51.374;6.170;2024-03-08T13:10:18;6.60;;;3.65;;
74371;SDS011;62885;51.374;6.170;2024-03-08T13:12:45;9.60;;;4.32;;
74371;SDS011;62885;51.374;6.170;2024-03-08T13:15:10;12.38;;;5.70;;
74371;SDS011;62885;51.374;6.170;2024-03-08T13:17:40;11.45;;;5.45;;
74371;SDS011;62885;51.374;6.170;2024-03-08T13:20:07;9.10;;;4.63;;
74371;SDS011;62885;51.374;6.170;2024-03-08T13:22:34;9.10;;;4.55;;
74371;SDS011;62885;51.374;6.170;2024-03-08T13:25:01;7.75;;;4.05;;
74371;SDS011;62885;51.374;6.170;2024-03-08T13:27:29;9.50;;;4.78;;
74371;SDS011;62885;51.374;6.170;2024-03-08T13:29:54;11.52;;;5.70;;
74371;SDS011;62885;51.374;6.170;2024-03-08T13:32:20;9.52;;;4.68;;
74371;SDS011;62885;51.374;6.170;2024-03-08T13:34:45;9.75;;;4.25;;
74371;SDS011;62885;51.374;6.170;2024-03-08T13:37:12;10.35;;;5.55;;
74371;SDS011;62885;51.374;6.170;2024-03-08T13:39:41;11.32;;;5.43;;
74371;SDS011;62885;51.374;6.170;2024-03-08T13:42:09;7.35;;;3.70;;
74371;SDS011;62885;51.374;6.170;2024-03-08T13:44:37;9.45;;;5.70;;
74371;SDS011;62885;51.374;6.170;2024-03-08T13:47:03;14.50;;;5.57;;
74371;SDS011;62885;51.374;6.170;2024-03-08T13:49:29;7.00;;;4.03;;
74371;SDS011;62885;51.374;6.170;2024-03-08T13:51:55;8.15;;;4.70;;
74371;SDS011;62885;51.374;6.170;2024-03-08T13:54:22;9.13;;;4.60;;
74371;SDS011;62885;51.374;6.170;2024-03-08T13:56:47;9.27;;;4.75;;
74371;SDS011;62885;51.374;6.170;2024-03-08T13:59:14;11.85;;;5.50;;
74371;SDS011;62885;51.374;6.170;2024-03-08T14:01:39;11.73;;;4.75;;
74371;SDS011;62885;51.374;6.170;2024-03-08T14:04:05;10.63;;;4.13;;
74371;SDS011;62885;51.374;6.170;2024-03-08T14:06:30;5.85;;;3.70;;
74371;SDS011;62885;51.374;6.170;2024-03-08T14:08:55;12.75;;;5.82;;
74371;SDS011;62885;51.374;6.170;2024-03-08T14:11:22;8.63;;;4.45;;
74371;SDS011;62885;51.374;6.170;2024-03-08T14:13:49;5.15;;;2.97;;
74371;SDS011;62885;51.374;6.170;2024-03-08T14:16:14;10.45;;;5.75;;
74371;SDS011;62885;51.374;6.170;2024-03-08T14:18:40;10.88;;;5.43;;
74371;SDS011;62885;51.374;6.170;2024-03-08T14:21:05;10.43;;;4.47;;
74371;SDS011;62885;51.374;6.170;2024-03-08T14:23:33;9.57;;;6.88;;
74371;SDS011;62885;51.374;6.170;2024-03-08T14:25:59;15.82;;;5.88;;
74371;SDS011;62885;51.374;6.170;2024-03-08T14:28:25;10.23;;;6.28;;
74371;SDS011;62885;51.374;6.170;2024-03-08T14:30:52;10.35;;;5.78;;
74371;SDS011;62885;51.374;6.170;2024-03-08T14:33:18;9.77;;;5.75;;
74371;SDS011;62885;51.374;6.170;2024-03-08T14:35:43;9.93;;;5.88;;
74371;SDS011;62885;51.374;6.170;2024-03-08T14:38:09;9.60;;;4.93;;